Current Weather

Chicago Executive

Wheeling, Illinois (KPWK)

Report from: Tuesday, February 27, 2024 2:52 AM CST
Current time: Tuesday, February 27, 2024 3:16 AM CST

Nearby weather – Weather history – Daily summaries
Weather forecast

Temperature14.4°C (57.9°F)
Dew point12.2°C (54.0°F)
Winds 13 kts (6.7 m/s, 15 mph) South-Southwest (210°)
Wind gusts 21 kts (10.8 m/s, 24.2 mph)
Visibility10 mi. (16.1 km)
Clouds Few clouds 1,500 ft. (457 m)
Altimeter29.43 in.Hg (997 mB)
Relative humidity87 %
Density altitude702 ft. (214 m)
Sea-level pressure99.6 kPa (996 mB, 29.42 in.Hg)
Remarks Fully automated report
System requires maintenance
Automated weather observing station with precipitation discriminator
Pressure falling more quickly
Flight conditions Visual Meteorological Conditions
Raw dataKPWK 270852Z AUTO 21013G21KT 10SM FEW015 14/12 A2943 RMK AO2 SLP964 T01440122 58006 $
An error has occurred. This application may no longer respond until reloaded. Reload 🗙